Time;durP1;ratioP1;P1;durP2;ratioP2;P2;SDS_P1;SDS_P2;PMS_P1;PMS_P2;Temp;Humidity;BMP_temperature;BMP_pressure;BME280_temperature;BME280_humidity;BME280_pressure;Samples;Min_cycle;Max_cycle;Signal;HPM_P1;HPM_P2
2021/06/15 00:02:19;;;;;;;0.20;0.20;;;;;;;23.58;34.99;98089.34;5093640;28;20396;-58
2021/06/15 00:04:45;;;;;;;0.10;0.10;;;;;;;23.96;34.40;98094.88;5093649;28;20069;-59
2021/06/15 00:07:11;;;;;;;0.10;0.10;;;;;;;24.25;34.14;98101.59;5093624;28;20028;-59
2021/06/15 00:09:38;;;;;;;0.10;0.10;;;;;;;24.62;33.85;98106.59;5093430;28;20110;-59
2021/06/15 00:12:08;;;;;;;0.55;0.22;;;;;;;24.93;33.63;98108.06;5093292;28;20044;-59
2021/06/15 00:14:34;;;;;;;0.20;0.20;;;;;;;25.11;33.08;98117.13;5092973;28;20074;-61
2021/06/15 00:17:00;;;;;;;0.10;0.10;;;;;;;25.18;33.33;98122.97;5093247;28;20440;-60
2021/06/15 00:19:26;;;;;;;0.20;0.20;;;;;;;25.08;33.89;98115.00;5093146;28;20489;-60
2021/06/15 00:21:51;;;;;;;0.03;0.03;;;;;;;24.98;34.03;98124.69;5092993;28;20397;-60
2021/06/15 00:24:17;;;;;;;0.38;0.20;;;;;;;24.74;34.20;98120.66;5092787;28;20111;-59
2021/06/15 00:26:43;;;;;;;0.28;0.20;;;;;;;24.38;35.11;98110.91;5093290;28;20524;-60
2021/06/15 00:29:09;;;;;;;0.30;0.30;;;;;;;24.24;35.38;98111.16;5092021;28;20067;-59
2021/06/15 00:31:34;;;;;;;0.10;0.10;;;;;;;24.30;35.36;98117.41;5074432;28;20035;-59
2021/06/15 00:34:01;;;;;;;0.22;0.22;;;;;;;24.38;35.20;98108.09;5092960;28;20032;-59
2021/06/15 00:36:27;;;;;;;0.10;0.10;;;;;;;24.23;35.31;98108.72;5092742;28;20103;-58
2021/06/15 00:38:52;;;;;;;0.10;0.10;;;;;;;23.98;35.54;98114.16;5092591;28;20553;-59
2021/06/15 00:41:18;;;;;;;0.38;0.38;;;;;;;23.68;36.07;98100.16;5092952;28;20038;-59
2021/06/15 00:43:44;;;;;;;0.10;0.10;;;;;;;23.40;36.62;98102.63;5092724;28;20410;-58
2021/06/15 00:46:09;;;;;;;0.05;0.05;;;;;;;23.21;37.14;98105.84;5091289;28;20031;-59
2021/06/15 00:48:36;;;;;;;0.10;0.10;;;;;;;23.06;37.13;98107.19;5092990;28;20028;-60
2021/06/15 00:51:06;;;;;;;0.20;0.20;;;;;;;22.82;37.33;98110.56;5091222;28;20028;-59
2021/06/15 00:53:33;;;;;;;0.15;0.15;;;;;;;22.49;38.10;98108.31;5092631;28;20063;-59
2021/06/15 00:55:59;;;;;;;0.55;0.55;;;;;;;22.19;38.53;98110.94;5092989;28;20028;-58
2021/06/15 00:58:25;;;;;;;0.15;0.15;;;;;;;21.97;38.86;98109.94;5092607;28;20115;-59
2021/06/15 01:00:52;;;;;;;0.00;0.00;;;;;;;21.81;38.96;98103.19;5090903;28;20028;-58
2021/06/15 01:03:20;;;;;;;0.10;0.10;;;;;;;21.68;39.06;98102.16;5092744;28;20133;-59
2021/06/15 01:05:46;;;;;;;0.10;0.10;;;;;;;21.52;39.10;98099.84;5092814;28;20568;-58
2021/06/15 01:08:39;;;;;;;0.22;0.22;;;;;;;21.38;39.52;98099.13;5092419;28;20558;-58
2021/06/15 01:11:29;;;;;;;0.20;0.20;;;;;;;21.25;39.46;98106.44;5092681;28;20036;-58
2021/06/15 01:14:32;;;;;;;0.10;0.10;;;;;;;21.17;39.49;98101.66;5089075;28;20032;-59
2021/06/15 01:17:10;;;;;;;0.52;0.52;;;;;;;21.16;39.38;98108.41;5069975;28;20045;-58
2021/06/15 01:20:03;;;;;;;0.10;0.10;;;;;;;21.19;39.41;98104.97;5072792;28;20033;-59
2021/06/15 01:22:42;;;;;;;0.08;0.08;;;;;;;21.28;39.32;98105.00;5072475;28;20036;-59
2021/06/15 01:25:13;;;;;;;0.55;0.55;;;;;;;21.38;38.77;98106.66;5090472;28;20027;-59
2021/06/15 01:27:41;;;;;;;0.20;0.20;;;;;;;21.56;38.47;98116.78;5092069;28;20036;-58
2021/06/15 01:30:14;;;;;;;0.30;0.20;;;;;;;21.79;38.14;98109.09;5091976;28;20425;-58
2021/06/15 01:32:45;;;;;;;0.10;0.10;;;;;;;22.01;37.93;98110.94;5092383;28;20028;-58
2021/06/15 01:35:13;;;;;;;0.17;0.17;;;;;;;22.17;37.58;98121.63;5092230;28;20493;-58
2021/06/15 01:37:42;;;;;;;0.10;0.10;;;;;;;22.25;37.68;98120.81;5092440;28;20050;-57
2021/06/15 01:40:15;;;;;;;0.60;0.60;;;;;;;22.28;37.67;98122.94;5091872;28;20031;-57
2021/06/15 01:42:48;;;;;;;0.20;0.15;;;;;;;22.28;37.84;98122.13;5094453;28;20028;-58
2021/06/15 01:45:20;;;;;;;0.10;0.10;;;;;;;22.25;38.11;98126.41;5094632;28;20162;-58
2021/06/15 01:48:12;;;;;;;0.20;0.20;;;;;;;22.25;37.97;98134.78;5094630;28;20035;-58
2021/06/15 01:50:41;;;;;;;1.05;0.95;;;;;;;22.22;37.94;98133.47;5096036;28;20040;-58
2021/06/15 01:53:08;;;;;;;0.13;0.13;;;;;;;22.15;38.18;98154.69;5095620;28;20028;-58
2021/06/15 01:55:36;;;;;;;0.88;0.63;;;;;;;22.07;38.53;98175.06;5095580;28;20039;-59
2021/06/15 01:58:03;;;;;;;0.15;0.15;;;;;;;21.91;38.70;98172.75;5095604;28;20024;-58
2021/06/15 02:00:31;;;;;;;0.65;0.65;;;;;;;21.73;38.95;98176.63;5095391;28;20038;-59
2021/06/15 02:02:59;;;;;;;0.25;0.25;;;;;;;21.63;39.33;98177.78;5094076;28;20024;-59
2021/06/15 02:05:34;;;;;;;2.17;0.93;;;;;;;21.59;39.36;98180.38;5095584;28;20032;-58
2021/06/15 02:08:03;;;;;;;0.55;0.32;;;;;;;21.62;39.32;98192.88;5096015;28;20036;-64
2021/06/15 02:10:31;;;;;;;0.10;0.10;;;;;;;21.59;39.36;98199.09;5095413;28;20406;-62
2021/06/15 02:12:57;;;;;;;2.17;0.55;;;;;;;21.50;39.48;98197.09;5095271;28;20039;-58
2021/06/15 02:15:26;;;;;;;0.52;0.52;;;;;;;21.38;39.55;98213.59;5095367;28;20194;-58
2021/06/15 02:17:54;;;;;;;0.52;0.47;;;;;;;21.25;40.00;98217.31;5093951;28;20024;-57
2021/06/15 02:20:26;;;;;;;2.53;0.90;;;;;;;21.08;40.40;98229.19;5095195;28;20114;-57
2021/06/15 02:22:55;;;;;;;0.70;0.63;;;;;;;20.90;40.75;98228.25;5095728;28;20085;-58
2021/06/15 02:25:30;;;;;;;0.05;0.05;;;;;;;20.64;41.55;98237.22;5095328;28;20055;-57
2021/06/15 02:27:56;;;;;;;0.00;0.00;;;;;;;20.31;42.30;98268.09;5095056;28;20097;-57
2021/06/15 02:30:24;;;;;;;0.47;0.47;;;;;;;20.01;43.05;98259.25;5094819;28;20051;-57
2021/06/15 02:32:53;;;;;;;0.30;0.30;;;;;;;19.74;43.82;98268.38;5095447;28;20032;-57
2021/06/15 02:35:23;;;;;;;0.00;0.00;;;;;;;19.37;44.61;98264.63;5093644;28;20493;-58
2021/06/15 02:38:09;;;;;;;0.32;0.32;;;;;;;19.04;45.68;98264.66;5095828;28;20031;-57
2021/06/15 02:40:37;;;;;;;0.20;0.20;;;;;;;18.74;46.31;98262.03;5095078;28;20034;-57
2021/06/15 02:43:06;;;;;;;0.10;0.10;;;;;;;18.50;46.92;98266.84;5095110;28;20040;-58
2021/06/15 02:45:34;;;;;;;0.05;0.05;;;;;;;18.31;47.22;98253.78;5094753;28;20028;-59
2021/06/15 02:48:03;;;;;;;0.15;0.15;;;;;;;18.19;47.73;98253.41;5093477;28;20032;-58
2021/06/15 02:50:30;;;;;;;1.05;0.95;;;;;;;18.16;47.71;98246.47;5093208;28;20035;-59
2021/06/15 02:53:04;;;;;;;2.00;0.93;;;;;;;18.25;47.66;98237.47;5092400;28;20046;-59
2021/06/15 02:55:32;;;;;;;;;;;;;;;18.30;47.56;98246.59;5095004;28;20055;-58
2021/06/15 02:57:58;;;;;;;2.00;0.80;;;;;;;18.33;47.26;98245.97;5094600;28;19912;-58
2021/06/15 03:00:23;;;;;;;0.32;0.32;;;;;;;18.39;47.43;98250.31;5094402;28;20131;-59
2021/06/15 03:02:49;;;;;;;0.50;0.50;;;;;;;18.39;47.71;98253.09;5094388;28;20032;-59
2021/06/15 03:05:17;;;;;;;0.20;0.20;;;;;;;18.41;47.63;98227.78;5094623;28;20092;-59
2021/06/15 03:07:46;;;;;;;0.13;0.10;;;;;;;18.45;47.85;98217.72;5094340;28;20497;-60
2021/06/15 03:10:13;;;;;;;0.20;0.20;;;;;;;18.48;48.01;98216.31;5095034;28;20032;-58
2021/06/15 03:12:56;;;;;;;0.13;0.13;;;;;;;18.51;48.19;98224.84;5093042;28;20062;-59
2021/06/15 03:15:30;;;;;;;0.20;0.20;;;;;;;18.54;48.37;98232.59;5094849;28;20039;-59
2021/06/15 03:18:08;;;;;;;0.45;0.45;;;;;;;18.59;48.58;98225.31;5094519;28;20032;-59
2021/06/15 03:20:36;;;;;;;0.17;0.17;;;;;;;18.62;48.60;98238.59;5092723;28;20039;-58
2021/06/15 03:23:21;;;;;;;0.10;0.10;;;;;;;18.70;48.76;98237.94;5094530;28;20393;-59
2021/06/15 03:25:49;;;;;;;0.10;0.10;;;;;;;18.75;48.66;98240.63;5093970;28;20044;-59
2021/06/15 03:28:28;;;;;;;0.30;0.30;;;;;;;18.79;49.06;98246.41;5092377;28;20113;-59
2021/06/15 03:30:54;;;;;;;0.35;0.35;;;;;;;18.82;49.07;98246.63;5094279;28;20043;-60
2021/06/15 03:33:22;;;;;;;1.38;0.73;;;;;;;18.84;49.38;98249.09;5094233;28;20036;-59
2021/06/15 03:35:52;;;;;;;4.38;0.30;;;;;;;18.80;49.56;98254.44;5092521;28;20102;-58
2021/06/15 03:38:18;;;;;;;0.35;0.35;;;;;;;18.74;49.88;98252.84;5094318;28;20088;-60
2021/06/15 03:40:49;;;;;;;0.10;0.10;;;;;;;18.67;50.34;98252.44;5094214;28;20035;-63
2021/06/15 03:43:16;;;;;;;0.15;0.15;;;;;;;18.60;50.56;98246.44;5092560;28;20071;-61
2021/06/15 03:45:48;;;;;;;1.25;0.75;;;;;;;18.54;51.04;98235.38;5093631;28;20174;-61
2021/06/15 03:48:15;;;;;;;0.10;0.10;;;;;;;18.48;51.30;98233.81;5094017;28;20051;-60
2021/06/15 03:50:41;;;;;;;0.10;0.10;;;;;;;18.42;51.43;98240.56;5092223;28;20031;-59
2021/06/15 03:53:10;;;;;;;0.30;0.30;;;;;;;18.39;51.71;98243.97;5093505;28;20035;-59
2021/06/15 03:55:39;;;;;;;0.20;0.20;;;;;;;18.37;52.10;98255.38;5093521;28;20055;-60
2021/06/15 03:58:08;;;;;;;0.68;0.68;;;;;;;18.36;52.16;98250.13;5093266;28;20042;-61
2021/06/15 04:00:37;;;;;;;0.90;0.57;;;;;;;18.35;52.40;98249.28;5092038;28;20036;-61
2021/06/15 04:03:06;;;;;;;0.40;0.32;;;;;;;18.36;52.37;98244.56;5093484;28;20036;-63
2021/06/15 04:05:36;;;;;;;0.43;0.43;;;;;;;18.38;52.47;98234.78;5092021;28;20081;-61
2021/06/15 04:08:05;;;;;;;0.10;0.10;;;;;;;18.45;52.41;98230.81;5092271;28;20055;-60
2021/06/15 04:10:33;;;;;;;2.53;0.93;;;;;;;18.50;52.28;98230.72;5093172;28;20028;-61
2021/06/15 04:13:02;;;;;;;0.45;0.30;;;;;;;18.56;52.38;98222.00;5093051;28;20028;-59
2021/06/15 04:15:30;;;;;;;0.13;0.13;;;;;;;18.62;52.44;98224.69;5092817;28;20028;-59
2021/06/15 04:17:58;;;;;;;0.22;0.22;;;;;;;18.63;52.26;98221.63;5093048;28;20028;-61
2021/06/15 04:20:29;;;;;;;1.10;0.30;;;;;;;18.64;52.61;98219.66;5093554;28;20036;-62
2021/06/15 04:22:55;;;;;;;0.10;0.10;;;;;;;18.66;52.56;98221.00;5093031;28;20043;-63
2021/06/15 04:25:26;;;;;;;0.10;0.10;;;;;;;18.70;52.75;98212.91;5092081;28;20390;-61
2021/06/15 04:27:53;;;;;;;0.10;0.10;;;;;;;18.73;52.67;98206.72;5092429;28;20036;-61
2021/06/15 04:30:20;;;;;;;0.28;0.28;;;;;;;18.70;52.88;98197.03;5090298;28;20048;-60
2021/06/15 04:32:57;;;;;;;0.20;0.20;;;;;;;18.67;53.15;98199.59;5086130;28;20059;-60
2021/06/15 04:35:30;;;;;;;0.10;0.10;;;;;;;18.62;53.29;98191.34;5089712;28;20062;-64
2021/06/15 04:38:01;;;;;;;0.20;0.20;;;;;;;18.62;53.56;98199.69;5091391;28;20074;-59
2021/06/15 04:40:49;;;;;;;0.00;0.00;;;;;;;18.57;53.58;98189.47;5092705;28;20035;-57
2021/06/15 04:43:21;;;;;;;0.35;0.35;;;;;;;18.52;54.01;98181.19;5092458;28;20040;-58
2021/06/15 04:45:49;;;;;;;0.20;0.20;;;;;;;18.50;54.16;98189.03;5092699;28;20039;-62
2021/06/15 04:48:23;;;;;;;0.10;0.10;;;;;;;18.47;54.22;98189.63;5092506;28;20074;-61
2021/06/15 04:50:50;;;;;;;0.00;0.00;;;;;;;18.46;54.41;98188.81;5093248;28;20039;-59
2021/06/15 04:53:17;;;;;;;0.20;0.20;;;;;;;18.46;54.63;98186.03;5092763;28;20032;-59
2021/06/15 04:55:45;;;;;;;0.00;0.00;;;;;;;18.56;54.32;98185.03;5092513;28;20115;-61
2021/06/15 04:58:14;;;;;;;1.75;0.43;;;;;;;18.73;53.94;98185.31;5091248;28;20401;-58
2021/06/15 05:00:40;;;;;;;0.10;0.10;;;;;;;18.91;53.52;98183.63;5092587;28;20051;-61
2021/06/15 05:03:07;;;;;;;0.15;0.15;;;;;;;19.07;53.18;98177.78;5073656;28;20494;-61
2021/06/15 05:05:34;;;;;;;0.20;0.20;;;;;;;19.25;52.94;98179.66;5092475;28;20142;-59
2021/06/15 05:08:01;;;;;;;0.10;0.10;;;;;;;19.40;52.85;98177.72;5092725;28;20055;-59
2021/06/15 05:10:29;;;;;;;0.30;0.30;;;;;;;19.56;52.63;98170.72;5092408;28;20382;-59
2021/06/15 05:12:56;;;;;;;0.10;0.10;;;;;;;19.74;52.45;98168.13;5091095;28;20059;-60
2021/06/15 05:15:26;;;;;;;0.17;0.17;;;;;;;19.94;52.02;98164.91;5094185;28;20081;-63
2021/06/15 05:17:55;;;;;;;0.10;0.10;;;;;;;20.15;51.85;98172.81;5096608;28;20056;-61
2021/06/15 05:20:23;;;;;;;0.28;0.25;;;;;;;20.38;51.21;98162.53;5096662;28;20032;-63
2021/06/15 05:23:04;;;;;;;0.10;0.10;;;;;;;20.75;50.95;98159.72;5096372;28;20020;-60
2021/06/15 05:25:30;;;;;;;0.10;0.10;;;;;;;21.12;50.08;98152.06;5071780;28;20092;-62
2021/06/15 05:27:56;;;;;;;0.10;0.10;;;;;;;21.39;49.85;98156.59;5093067;28;20405;-63
2021/06/15 05:30:23;;;;;;;1.02;0.63;;;;;;;21.56;49.49;98153.09;5093781;28;20055;-63
2021/06/15 05:32:50;;;;;;;0.20;0.20;;;;;;;21.69;49.68;98163.31;5093353;28;20051;-60
2021/06/15 05:35:16;;;;;;;0.10;0.10;;;;;;;21.83;49.75;98176.31;5093748;28;20094;-63
2021/06/15 05:37:43;;;;;;;0.55;0.55;;;;;;;21.86;49.54;98184.06;5093201;28;20475;-61
2021/06/15 05:40:10;;;;;;;0.65;0.30;;;;;;;21.99;49.47;98190.66;5093259;28;20054;-65
2021/06/15 05:42:36;;;;;;;0.10;0.10;;;;;;;22.51;48.49;98207.56;5093865;28;20043;-62
2021/06/15 05:45:02;;;;;;;0.32;0.30;;;;;;;23.44;46.81;98205.28;5092825;28;20485;-61
2021/06/15 05:47:29;;;;;;;0.10;0.10;;;;;;;23.48;47.10;98205.41;5093498;28;20047;-61
2021/06/15 05:49:55;;;;;;;0.25;0.25;;;;;;;25.19;44.10;98198.47;5092887;28;20093;-61
2021/06/15 05:52:21;;;;;;;0.10;0.10;;;;;;;27.25;40.74;98194.50;5091954;28;20119;-64
2021/06/15 05:54:47;;;;;;;0.10;0.10;;;;;;;27.71;40.15;98188.47;5091333;28;20562;-62
2021/06/15 05:57:13;;;;;;;0.00;0.00;;;;;;;27.52;40.88;98192.00;5090964;28;20494;-63
2021/06/15 05:59:39;;;;;;;0.20;0.20;;;;;;;27.53;41.44;98193.66;5091418;28;20500;-63
2021/06/15 06:02:06;;;;;;;0.03;0.03;;;;;;;27.16;42.41;98193.81;5089662;28;20032;-62
2021/06/15 06:10:04;;;;;;;0.00;0.00;;;;;;;24.69;47.45;98201.44;5070745;28;20075;-61
2021/06/15 06:12:30;;;;;;;0.13;0.13;;;;;;;24.16;48.46;98206.59;5068265;28;20040;-71
2021/06/15 06:14:56;;;;;;;0.10;0.10;;;;;;;23.85;48.66;98200.16;5071491;28;20029;-71
2021/06/15 06:17:22;;;;;;;0.22;0.20;;;;;;;23.64;49.27;98193.66;5070801;28;20032;-68
2021/06/15 06:19:51;;;;;;;0.15;0.15;;;;;;;23.40;49.62;98197.88;5070237;28;20032;-70
2021/06/15 06:22:19;;;;;;;0.10;0.10;;;;;;;23.08;50.14;98202.88;5070402;28;20039;-71
2021/06/15 06:24:46;;;;;;;0.20;0.20;;;;;;;22.91;49.96;98198.97;5068146;28;20129;-69
2021/06/15 06:27:12;;;;;;;0.05;0.05;;;;;;;22.82;50.14;98211.31;5067478;28;20036;-62
2021/06/15 06:29:39;;;;;;;0.20;0.20;;;;;;;22.73;50.62;98202.91;5068452;28;20052;-62
2021/06/15 06:32:05;;;;;;;0.10;0.10;;;;;;;22.61;50.56;98206.38;5052006;28;20052;-63
2021/06/15 06:34:31;;;;;;;0.13;0.13;;;;;;;22.49;50.64;98211.81;5073197;28;20020;-63
2021/06/15 06:36:57;;;;;;;0.30;0.30;;;;;;;22.34;50.73;98211.16;5066279;28;20036;-63
2021/06/15 06:39:25;;;;;;;0.10;0.10;;;;;;;22.25;51.01;98206.69;5069425;28;20462;-62
2021/06/15 06:41:51;;;;;;;0.10;0.10;;;;;;;22.22;50.76;98210.94;5069632;28;20040;-63
2021/06/15 06:44:21;;;;;;;0.63;0.20;;;;;;;22.18;51.12;98212.75;5076232;28;20032;-61
2021/06/15 06:46:47;;;;;;;0.00;0.00;;;;;;;22.17;50.88;98202.69;5090772;28;20048;-62
2021/06/15 06:49:13;;;;;;;0.00;0.00;;;;;;;22.15;50.67;98203.03;5090475;28;20111;-60
2021/06/15 06:51:38;;;;;;;1.23;0.47;;;;;;;22.21;50.62;98187.72;5091715;28;20115;-63
2021/06/15 06:54:05;;;;;;;0.05;0.05;;;;;;;22.26;50.43;98185.94;5091389;28;20569;-63
2021/06/15 06:56:30;;;;;;;0.00;0.00;;;;;;;22.29;50.77;98194.50;5091313;28;20039;-63
2021/06/15 06:58:56;;;;;;;0.10;0.10;;;;;;;22.32;50.55;98191.09;5090308;28;20111;-64
2021/06/15 07:01:24;;;;;;;0.08;0.08;;;;;;;22.37;50.45;98179.72;5090512;28;20081;-64
2021/06/15 07:03:51;;;;;;;0.43;0.25;;;;;;;22.43;50.42;98182.38;5091884;28;20024;-63
2021/06/15 07:06:17;;;;;;;0.00;0.00;;;;;;;22.43;50.27;98171.19;5091651;28;20036;-63
2021/06/15 07:08:44;;;;;;;0.10;0.10;;;;;;;22.44;50.36;98175.59;5091866;28;20032;-62
2021/06/15 07:11:10;;;;;;;0.10;0.10;;;;;;;22.48;50.31;98177.44;5091316;28;20060;-61
2021/06/15 07:13:35;;;;;;;0.00;0.00;;;;;;;22.47;50.27;98174.97;5090249;28;20464;-62
2021/06/15 07:16:01;;;;;;;1.23;0.52;;;;;;;22.44;50.07;98175.59;5091308;28;20032;-60
2021/06/15 07:18:27;;;;;;;0.10;0.10;;;;;;;22.43;50.27;98173.97;5091585;28;20035;-60
2021/06/15 07:20:52;;;;;;;0.15;0.15;;;;;;;22.48;50.24;98168.22;5091045;28;20036;-60
2021/06/15 07:23:18;;;;;;;0.10;0.10;;;;;;;22.50;49.84;98169.53;5091151;28;20085;-60
2021/06/15 07:25:45;;;;;;;0.00;0.00;;;;;;;22.57;49.81;98180.25;5056853;28;20074;-65
2021/06/15 07:28:11;;;;;;;0.15;0.15;;;;;;;22.64;49.79;98171.34;5090306;28;20035;-60
2021/06/15 07:30:36;;;;;;;0.20;0.20;;;;;;;22.70;49.54;98165.25;5091263;28;20065;-60
2021/06/15 07:33:02;;;;;;;0.43;0.20;;;;;;;22.74;49.40;98171.00;5090363;28;20084;-61
2021/06/15 07:35:29;;;;;;;0.13;0.10;;;;;;;22.81;49.56;98159.31;5091253;28;20410;-59
2021/06/15 07:37:55;;;;;;;0.10;0.10;;;;;;;22.87;49.54;98146.78;5090357;28;20124;-59
2021/06/15 07:40:24;;;;;;;0.55;0.55;;;;;;;22.91;49.34;98147.75;5091004;28;20580;-59
2021/06/15 07:42:56;;;;;;;0.00;0.00;;;;;;;22.94;49.14;98141.50;5088457;28;20082;-61
2021/06/15 07:45:25;;;;;;;0.20;0.20;;;;;;;22.99;49.35;98140.50;5090837;28;20038;-62
2021/06/15 07:47:51;;;;;;;0.10;0.10;;;;;;;23.01;49.28;98139.00;5090637;28;20031;-60
2021/06/15 07:50:17;;;;;;;0.00;0.00;;;;;;;23.13;49.46;98137.50;5090864;28;20038;-62
2021/06/15 07:52:45;;;;;;;0.00;0.00;;;;;;;23.21;49.27;98137.47;5090440;28;20039;-60
2021/06/15 07:55:15;;;;;;;0.15;0.15;;;;;;;23.25;49.04;98127.25;5089667;28;20105;-61
2021/06/15 07:57:41;;;;;;;0.00;0.00;;;;;;;23.29;48.99;98130.19;5090440;28;20038;-61
2021/06/15 08:00:09;;;;;;;0.32;0.32;;;;;;;23.40;48.69;98125.84;5090269;28;20114;-61
2021/06/15 08:02:35;;;;;;;0.25;0.20;;;;;;;23.58;48.19;98123.78;5089605;28;20417;-62
2021/06/15 08:05:01;;;;;;;0.03;0.03;;;;;;;23.69;47.94;98110.22;5090201;28;20043;-60
2021/06/15 08:07:27;;;;;;;1.23;0.63;;;;;;;23.73;48.14;98114.00;5090732;28;20082;-59
2021/06/15 08:09:52;;;;;;;0.20;0.20;;;;;;;23.78;48.41;98124.19;5090357;28;20494;-61
2021/06/15 08:12:20;;;;;;;0.50;0.17;;;;;;;23.88;47.93;98117.38;5090394;28;20036;-62
2021/06/15 08:14:47;;;;;;;0.00;0.00;;;;;;;24.02;48.06;98112.34;5090803;28;20506;-59
2021/06/15 08:17:13;;;;;;;0.03;0.03;;;;;;;24.29;47.29;98118.53;5090144;28;20036;-61
2021/06/15 08:19:39;;;;;;;0.82;0.15;;;;;;;24.61;46.56;98121.78;5090624;28;20031;-60
2021/06/15 08:22:05;;;;;;;0.10;0.10;;;;;;;24.90;46.07;98118.00;5090031;28;20032;-59
2021/06/15 08:24:31;;;;;;;0.65;0.20;;;;;;;25.22;45.64;98118.31;5090406;28;20032;-60
2021/06/15 08:26:57;;;;;;;0.00;0.00;;;;;;;25.57;45.09;98106.63;5088692;28;20035;-61
2021/06/15 08:29:23;;;;;;;0.00;0.00;;;;;;;25.79;44.74;98102.50;5088730;28;20587;-64
2021/06/15 08:31:49;;;;;;;0.20;0.20;;;;;;;25.91;44.87;98112.09;5090250;28;20505;-60
2021/06/15 08:34:14;;;;;;;0.10;0.10;;;;;;;25.97;45.04;98097.47;5089709;28;20032;-60
2021/06/15 08:39:24;;;;;;;0.10;0.10;;;;;;;26.35;44.59;98095.38;5090672;28;20043;-60
2021/06/15 08:41:50;;;;;;;0.00;0.00;;;;;;;26.45;44.16;98096.88;5089717;28;20378;-60
2021/06/15 08:44:16;;;;;;;0.20;0.20;;;;;;;26.60;43.97;98098.09;5089798;28;20027;-60
2021/06/15 08:46:44;;;;;;;0.00;0.00;;;;;;;26.76;44.13;98098.97;5090253;28;20093;-59
2021/06/15 08:49:10;;;;;;;0.28;0.28;;;;;;;27.07;43.70;98112.28;5089363;28;20402;-60
2021/06/15 08:51:36;;;;;;;0.20;0.10;;;;;;;27.35;43.08;98108.59;5088625;28;20036;-60
2021/06/15 08:54:03;;;;;;;0.08;0.08;;;;;;;27.36;43.07;98115.06;5086429;28;20039;-60
2021/06/15 08:56:32;;;;;;;0.10;0.10;;;;;;;27.38;43.04;98095.78;5087743;28;20048;-60
2021/06/15 08:59:20;;;;;;;0.10;0.10;;;;;;;27.49;43.42;98108.16;5085502;28;20061;-58
2021/06/15 09:01:49;;;;;;;0.47;0.20;;;;;;;27.52;43.25;98101.78;5089448;28;20028;-59
2021/06/15 09:04:15;;;;;;;0.10;0.10;;;;;;;27.55;43.38;98101.03;5089498;28;20094;-60
2021/06/15 09:06:41;;;;;;;0.10;0.10;;;;;;;27.63;43.16;98102.03;5087729;28;20035;-59
2021/06/15 09:09:07;;;;;;;0.00;0.00;;;;;;;27.63;43.42;98096.38;5089720;28;20785;-59
2021/06/15 09:11:53;;;;;;;0.00;0.00;;;;;;;27.51;43.24;98105.78;5088227;28;20062;-60
2021/06/15 09:14:47;;;;;;;0.32;0.20;;;;;;;27.31;43.87;98101.19;5090427;28;20506;-60
2021/06/15 09:17:27;;;;;;;0.13;0.13;;;;;;;27.06;44.37;98109.81;5087691;28;20036;-61
2021/06/15 09:19:54;;;;;;;0.00;0.00;;;;;;;26.90;44.36;98099.38;5087044;28;20509;-62
2021/06/15 09:22:27;;;;;;;0.00;0.00;;;;;;;26.81;44.47;98101.53;5084241;28;20088;-59
2021/06/15 09:24:54;;;;;;;0.10;0.10;;;;;;;26.64;44.85;98105.44;5086840;28;20028;-61
2021/06/15 09:27:31;;;;;;;0.20;0.20;;;;;;;26.46;45.44;98116.22;5087643;28;20031;-61
2021/06/15 09:29:59;;;;;;;0.15;0.15;;;;;;;26.26;45.48;98103.97;5085657;28;20050;-64
2021/06/15 09:32:35;;;;;;;0.20;0.10;;;;;;;26.08;45.72;98108.25;5086444;28;20501;-65
2021/06/15 09:35:05;;;;;;;0.43;0.43;;;;;;;25.92;45.80;98103.31;5086049;28;20396;-60
2021/06/15 09:37:36;;;;;;;0.38;0.38;;;;;;;25.74;46.51;98116.81;5087801;28;20065;-59
2021/06/15 09:40:11;;;;;;;0.40;0.40;;;;;;;25.62;46.23;98119.66;5086315;28;20021;-61
2021/06/15 09:42:55;;;;;;;0.00;0.00;;;;;;;25.50;46.31;98123.25;5087072;28;21437;-62
2021/06/15 09:45:30;;;;;;;0.00;0.00;;;;;;;25.43;46.14;98117.41;5087888;28;20077;-62
2021/06/15 09:48:28;;;;;;;0.05;0.05;;;;;;;25.38;46.67;98110.00;5088131;28;20115;-62
2021/06/15 09:51:01;;;;;;;0.20;0.20;;;;;;;25.32;46.61;98105.81;5088497;28;20032;-60
2021/06/15 09:53:32;;;;;;;0.15;0.15;;;;;;;25.24;46.83;98109.53;5088738;28;20035;-62
2021/06/15 09:56:01;;;;;;;0.03;0.03;;;;;;;25.13;46.83;98107.19;5089056;28;20036;-63
2021/06/15 09:58:49;;;;;;;0.10;0.10;;;;;;;25.05;47.03;98105.28;5089133;28;20585;-62
2021/06/15 10:01:35;;;;;;;0.35;0.35;;;;;;;24.99;47.14;98113.09;5089425;28;20070;-61
2021/06/15 10:04:19;;;;;;;0.00;0.00;;;;;;;24.98;46.99;98108.69;5092544;28;20032;-62
2021/06/15 10:06:49;;;;;;;0.00;0.00;;;;;;;25.03;46.96;98113.25;5092719;28;20519;-59
2021/06/15 10:09:31;;;;;;;0.20;0.20;;;;;;;25.04;46.75;98116.88;5092128;28;20028;-62
2021/06/15 10:12:00;;;;;;;0.15;0.13;;;;;;;25.04;46.76;98112.06;5092643;28;20047;-62
2021/06/15 10:14:28;;;;;;;0.10;0.10;;;;;;;25.07;46.83;98122.59;5092650;28;20081;-60
2021/06/15 10:16:55;;;;;;;0.25;0.25;;;;;;;25.12;46.65;98116.75;5089895;28;20040;-61
2021/06/15 10:19:22;;;;;;;0.30;0.30;;;;;;;25.19;46.13;98119.81;5089554;28;20028;-61
2021/06/15 10:21:48;;;;;;;0.10;0.10;;;;;;;25.28;46.28;98121.69;5089702;28;20046;-53
2021/06/15 10:24:18;;;;;;;0.63;0.63;;;;;;;25.41;45.95;98131.81;5091140;28;20069;-58
2021/06/15 10:26:44;;;;;;;0.10;0.10;;;;;;;25.56;45.29;98133.13;5090408;28;20036;-62
2021/06/15 10:29:12;;;;;;;0.10;0.10;;;;;;;25.64;45.56;98122.91;5090753;28;20040;-59
2021/06/15 10:31:41;;;;;;;0.10;0.10;;;;;;;25.72;44.99;98116.34;5091012;28;20059;-57
2021/06/15 10:34:07;;;;;;;0.10;0.10;;;;;;;25.77;44.92;98127.34;5090358;28;20024;-61
2021/06/15 10:36:36;;;;;;;0.30;0.30;;;;;;;25.81;45.23;98124.66;5089854;28;20514;-58
2021/06/15 10:39:03;;;;;;;0.20;0.20;;;;;;;25.80;45.19;98109.78;5090722;28;20119;-63
2021/06/15 10:41:29;;;;;;;0.20;0.20;;;;;;;25.85;44.85;98103.09;5090355;28;20390;-65
2021/06/15 10:44:00;;;;;;;1.88;0.45;;;;;;;25.86;45.08;98091.47;5091459;28;20086;-62
2021/06/15 10:46:37;;;;;;;0.10;0.10;;;;;;;25.83;44.90;98089.38;5091845;28;20409;-62
2021/06/15 10:49:14;;;;;;;0.10;0.10;;;;;;;25.83;45.12;98097.81;5091430;28;20054;-52
2021/06/15 10:51:43;;;;;;;1.10;0.30;;;;;;;25.84;44.76;98093.84;5091422;28;20040;-63
2021/06/15 10:54:27;;;;;;;0.10;0.10;;;;;;;25.78;45.08;98100.03;5091549;28;20048;-61
2021/06/15 10:57:16;;;;;;;0.10;0.10;;;;;;;25.69;45.40;98088.94;5091394;28;20440;-62
2021/06/15 11:00:03;;;;;;;0.00;0.00;;;;;;;25.68;45.47;98101.38;5091933;28;20044;-60
2021/06/15 11:02:31;;;;;;;0.00;0.00;;;;;;;25.70;45.46;98101.81;5089328;28;20489;-59
2021/06/15 11:05:16;;;;;;;0.28;0.22;;;;;;;25.65;45.53;98102.06;5090876;28;20028;-61
2021/06/15 11:07:42;;;;;;;0.00;0.00;;;;;;;25.68;45.44;98104.97;5091473;28;20039;-59
2021/06/15 11:10:08;;;;;;;0.30;0.22;;;;;;;25.83;44.98;98089.38;5091882;28;20031;-59
2021/06/15 11:12:48;;;;;;;0.13;0.13;;;;;;;25.93;44.85;98101.31;5090290;28;20036;-63
2021/06/15 11:15:21;;;;;;;0.98;0.40;;;;;;;26.07;44.74;98092.53;5091014;28;20039;-63
2021/06/15 11:17:56;;;;;;;0.10;0.10;;;;;;;26.11;44.72;98091.47;5069759;28;20036;-63
2021/06/15 11:20:39;;;;;;;0.00;0.00;;;;;;;26.12;44.65;98086.66;5089756;28;20043;-58
2021/06/15 11:23:22;;;;;;;0.20;0.20;;;;;;;25.96;45.15;98078.13;5089067;28;20393;-63
2021/06/15 11:26:12;;;;;;;0.00;0.00;;;;;;;25.81;45.37;98085.28;5087655;28;20060;-68
2021/06/15 11:28:56;;;;;;;0.20;0.20;;;;;;;25.66;45.78;98087.66;5087472;28;20040;-62
2021/06/15 11:31:22;;;;;;;0.10;0.10;;;;;;;25.61;45.52;98089.88;5088278;28;20039;-62
2021/06/15 11:34:03;;;;;;;0.13;0.13;;;;;;;25.55;45.92;98085.69;5089928;28;20063;-60
2021/06/15 11:36:50;;;;;;;0.00;0.00;;;;;;;25.47;45.83;98084.59;5088710;28;20122;-60
2021/06/15 11:39:32;;;;;;;0.60;0.28;;;;;;;25.44;45.55;98088.13;5087322;28;20110;-61
2021/06/15 11:42:07;;;;;;;0.10;0.10;;;;;;;25.40;45.84;98088.03;5088982;28;20063;-61
2021/06/15 11:45:00;;;;;;;0.35;0.30;;;;;;;25.40;45.58;98101.22;5088998;28;20032;-62
2021/06/15 11:47:37;;;;;;;0.38;0.38;;;;;;;25.37;45.54;98099.97;5088896;28;20063;-61
2021/06/15 11:50:16;;;;;;;0.20;0.20;;;;;;;25.36;45.67;98095.50;5088132;28;20046;-60
2021/06/15 11:52:52;;;;;;;0.10;0.10;;;;;;;25.32;45.63;98089.78;5086770;28;20028;-60
2021/06/15 11:55:19;;;;;;;0.28;0.28;;;;;;;25.26;45.55;98105.19;5087368;28;20036;-64
2021/06/15 11:57:45;;;;;;;0.10;0.10;;;;;;;25.21;45.29;98096.19;5087949;28;20043;-61